Impacts TAF Board
For situational awareness. Not to be used for flight planning purposes.
IDs:

KATL - Atlanta/Hartsfield-J, GA, US

Issued at 1542 UTC 16 Feb 2019
Updated at 1553 UTC 16 Feb 2019
Potential Impact None Slight Moderate High
Time<<17/04Z 17/05Z 17/06Z 17/07Z 17/08Z 17/09Z 17/10Z 17/11Z 17/12Z 17/13Z 17/14Z 17/15Z 17/16Z>>
Type PRVL PRVL PRVL PRVL PRVL PRVL PRVL PRVL PRVL PRVL PRVL PRVL PRVL
VIS >6 >6 >6 >6 >6 >6 >6 >6 >6 5 5 5 5
CIG 25 25 15 15 15 15 15 15 15 6 6 6 6
Cover BKN BKN OVC OVC OVC OVC OVC OVC OVC OVC OVC OVC OVC
FltCat MVFR MVFR MVFR MVFR MVFR MVFR MVFR MVFR MVFR IFR IFR IFR IFR
WX -- -- VCSH VCSH VCSH VCSH VCSH VCSH VCSH -SHRA BR -SHRA BR -SHRA BR -SHRA BR
WDir 60 60 100 100 100 100 100 100 100 110 110 110 110
WSpd 5 5 7 7 7 7 7 7 7 9 9 9 9
WGst -- -- -- -- -- -- -- -- -- -- -- -- --
Raw TAF
KATL 161542Z 1616/1718 29008KT P6SM BKN015
  FM161900 29008KT P6SM SCT020
  FM170200 06005KT P6SM BKN025
  FM170600 10007KT P6SM VCSH OVC015
  FM171300 11009KT 5SM -SHRA BR OVC006


METAR Board
Radar Display
Forecast Discussion
For situational awareness. Not to be used for flight planning purposes.